メインページ
METAR-TAF:

METAR-TAF

空港 :

プエルト・プリンセサ国際空港

プエルト・プリンセサ, フィリピン

緯度: 09-44-32N, 経度: 118-45-31E, 海抜: 22m

現時点の気象観測

当レポートは52分前の12:00(UTC)に作成
南/南西の風 4kt
気温 27°C
湿度 89%
気圧 1010 hPa
視程10km以上
高度1900ftの雲はほとんどない
高度8000ftの雲は散在している

METAR: RPVP 201200Z 21004KT 9999 FEW019 SCT080 27/25 Q1010 RMK A2983

時間: 20:52 (12:52 UTC)

予報

当レポートは1時間52分前の11:00(UTC)に作成
予報は20日の 12時(UTC)から 21日の 12時(UTC)まで有効
の風 10kt
視程10km以上
高度1900ftの雲はほとんどない
高度8000ftの雲は散在している
20日の 12時(UTC)から 20日の 18時(UTC)まで一時的に
南/南西の風 16kt
高度1900ftの雲は散在している
高度8000ftの千切れ雲あり
小雨
21日の 06時(UTC)から 21日の 12時(UTC)まで一時的に
の風 10kt、最大20ktの突風を伴う
高度1700ftの雲は散在している, 積乱雲.
高度8000ftの千切れ雲あり
激しい雷雨, 小雨,

TAF: RPVP 201100Z 2012/2112 18010KT 9999 FEW019 SCT080 TEMPO 2012/2018 20016KT -RA SCT019 BKN080 TEMPO 2106/2112 18010G20KT -TSRA SCT017CB BKN080

4,000以上の空港の気象観測と天気予報(METAR報とTAF報)

利用可能な観測所は地図上に黄色い丸と赤い丸で示す。

丸の上にカーソルを重ねると観測所名を参照できる。

次にクリックすると気象観測と天気予報を参照できる。

マップの切り替え:黒色「×」印の緑ボタンをクリックして拡大、「-」印の緑ボタンをクリックして縮小、緑色の三角印をクリックして隣りの地図に切り替え


METAR-TAF: